createdAt,value
2019-04-10T00:00:37.291Z,79.26
2019-04-10T00:01:44.595Z,79.43
2019-04-10T00:02:50.741Z,79.69
2019-04-10T00:03:55.204Z,79.71
2019-04-10T00:04:59.671Z,79.88
2019-04-10T00:06:06.753Z,79.75
2019-04-10T00:07:15.106Z,79.86
2019-04-10T00:08:17.850Z,79.82
2019-04-10T00:09:25.952Z,79.62
2019-04-10T00:10:30.414Z,79.64
2019-04-10T00:11:35.235Z,79.87
2019-04-10T00:12:40.453Z,80.09
2019-04-10T00:13:46.971Z,80.02
2019-04-10T00:14:52.575Z,79.66
2019-04-10T00:15:57.120Z,79.51
2019-04-10T00:17:02.664Z,79.82
2019-04-10T00:18:09.412Z,80.00
2019-04-10T00:19:15.915Z,80.35
2019-04-10T00:20:20.458Z,80.30
2019-04-10T00:21:25.202Z,80.52
2019-04-10T00:22:30.505Z,80.56
2019-04-10T00:23:35.290Z,80.57
2019-04-10T00:24:39.932Z,80.54
2019-04-10T00:25:45.348Z,80.84
2019-04-10T00:26:50.839Z,80.79
2019-04-10T00:27:55.376Z,80.75
2019-04-10T00:29:00.249Z,80.86
2019-04-10T00:30:07.091Z,80.89
2019-04-10T00:31:11.633Z,81.08
2019-04-10T00:32:16.207Z,81.22
2019-04-10T00:33:20.838Z,80.95
2019-04-10T00:34:25.449Z,80.96
2019-04-10T00:35:29.925Z,81.14
2019-04-10T00:36:35.237Z,81.14
2019-04-10T00:37:40.802Z,81.24
2019-04-10T00:38:46.202Z,81.14
2019-04-10T00:39:50.861Z,81.07
2019-04-10T00:40:55.498Z,81.12
2019-04-10T00:42:00.886Z,81.18
2019-04-10T00:43:06.477Z,81.25
2019-04-10T00:44:11.232Z,81.35
2019-04-10T00:45:15.692Z,81.62
2019-04-10T00:46:20.526Z,81.65
2019-04-10T00:47:25.063Z,81.85
2019-04-10T00:48:30.080Z,81.71
2019-04-10T00:49:34.660Z,81.51
2019-04-10T00:50:39.178Z,81.70
2019-04-10T00:51:43.676Z,81.43
2019-04-10T00:52:48.418Z,81.45
2019-04-10T00:53:53.900Z,81.65
2019-04-10T00:54:59.394Z,81.70
2019-04-10T00:56:04.217Z,81.96
2019-04-10T00:57:09.447Z,81.68
2019-04-10T00:58:14.182Z,82.34
2019-04-10T00:59:19.818Z,82.29
2019-04-10T01:00:25.543Z,82.30
2019-04-10T01:01:30.170Z,82.57
2019-04-10T01:02:34.633Z,82.68
2019-04-10T01:03:46.874Z,82.70
2019-04-10T01:04:51.210Z,83.03
2019-04-10T01:05:55.672Z,82.90
2019-04-10T01:07:00.241Z,83.11
2019-04-10T01:08:06.599Z,83.18
2019-04-10T01:09:11.252Z,83.26
2019-04-10T01:10:17.793Z,83.42
2019-04-10T01:11:23.178Z,83.20
2019-04-10T01:12:28.031Z,83.33
2019-04-10T01:13:33.003Z,83.61
2019-04-10T01:14:38.096Z,83.64
2019-04-10T01:15:42.748Z,83.42
2019-04-10T01:16:48.188Z,83.41
2019-04-10T01:17:52.876Z,83.28
2019-04-10T01:18:58.260Z,83.25
2019-04-10T01:20:02.785Z,83.28
2019-04-10T01:21:08.292Z,83.63
2019-04-10T01:22:12.836Z,83.77
2019-04-10T01:23:17.274Z,83.76
2019-04-10T01:24:21.745Z,83.54
2019-04-10T01:25:26.257Z,83.48
2019-04-10T01:26:31.623Z,83.68
2019-04-10T01:27:36.212Z,83.73
2019-04-10T01:28:41.778Z,83.69
2019-04-10T01:29:46.263Z,83.72
2019-04-10T01:30:50.797Z,83.60
2019-04-10T01:31:55.354Z,83.76
2019-04-10T01:33:00.674Z,83.79
2019-04-10T01:34:05.408Z,83.71
2019-04-10T01:35:09.999Z,83.82
2019-04-10T01:36:15.095Z,83.73
2019-04-10T01:37:20.549Z,83.85
2019-04-10T01:38:25.189Z,83.77
2019-04-10T01:39:31.239Z,83.99
2019-04-10T01:40:35.700Z,83.86
2019-04-10T01:41:40.165Z,83.92
2019-04-10T01:42:58.941Z,83.74
2019-04-10T01:43:51.096Z,83.66
2019-04-10T01:44:55.651Z,83.87
2019-04-10T01:46:00.111Z,84.00
2019-04-10T01:47:04.720Z,83.83
2019-04-10T01:48:10.012Z,83.77
2019-04-10T01:49:15.586Z,84.08
2019-04-10T01:50:22.110Z,84.47
2019-04-10T01:51:27.535Z,84.44
2019-04-10T01:52:33.146Z,84.56
2019-04-10T01:53:37.764Z,84.54
2019-04-10T01:54:44.411Z,84.67
2019-04-10T01:55:49.264Z,84.81
2019-04-10T01:56:53.866Z,84.78
2019-04-10T01:58:00.955Z,84.72
2019-04-10T01:59:05.684Z,84.62
2019-04-10T02:00:13.236Z,84.78
2019-04-10T02:01:22.407Z,84.80
2019-04-10T02:02:34.428Z,84.81
2019-04-10T02:03:38.913Z,84.92
2019-04-10T02:04:43.857Z,85.04
2019-04-10T02:05:49.155Z,85.15
2019-04-10T02:06:53.829Z,85.11
2019-04-10T02:08:07.287Z,85.15
2019-04-10T02:09:07.523Z,85.01
2019-04-10T02:10:12.156Z,85.02
2019-04-10T02:11:17.517Z,84.86
2019-04-10T02:12:22.843Z,84.74
2019-04-10T02:13:27.639Z,84.63
2019-04-10T02:14:32.183Z,84.35
2019-04-10T02:15:36.672Z,84.24
2019-04-10T02:16:41.231Z,84.30
2019-04-10T02:17:46.626Z,84.49
2019-04-10T02:18:52.023Z,84.48
2019-04-10T02:19:56.908Z,84.59
2019-04-10T02:21:01.359Z,84.55
2019-04-10T02:22:06.484Z,84.43
2019-04-10T02:23:12.115Z,84.44
2019-04-10T02:24:16.819Z,84.57
2019-04-10T02:25:21.953Z,84.32
2019-04-10T02:26:27.676Z,84.33
2019-04-10T02:27:32.224Z,83.84
2019-04-10T02:28:37.475Z,84.74
2019-04-10T02:29:42.059Z,85.04
2019-04-10T02:30:47.883Z,84.89
2019-04-10T02:31:53.357Z,84.90
2019-04-10T02:32:59.746Z,85.08
2019-04-10T02:34:05.355Z,84.93
2019-04-10T02:35:16.530Z,85.31
2019-04-10T02:36:17.451Z,85.51
2019-04-10T02:37:22.814Z,84.93
2019-04-10T02:38:44.570Z,84.84
2019-04-10T02:39:39.814Z,85.04
2019-04-10T02:40:41.556Z,84.80
2019-04-10T02:41:46.071Z,84.80
2019-04-10T02:42:51.380Z,84.40
2019-04-10T02:43:55.897Z,84.28
2019-04-10T02:45:02.049Z,84.12
2019-04-10T02:46:08.301Z,84.63
2019-04-10T02:47:14.314Z,84.60
2019-04-10T02:48:19.449Z,84.84
2019-04-10T02:49:24.734Z,84.83
2019-04-10T02:50:31.155Z,84.99
2019-04-10T02:51:35.963Z,84.60
2019-04-10T02:52:42.899Z,84.62
2019-04-10T02:53:48.078Z,84.56
2019-04-10T02:54:53.771Z,84.39
2019-04-10T02:56:00.334Z,83.85
2019-04-10T02:57:05.494Z,83.55
2019-04-10T02:58:10.153Z,83.89
2019-04-10T02:59:15.447Z,84.02
2019-04-10T03:00:22.353Z,84.20
2019-04-10T03:01:27.236Z,83.93
2019-04-10T03:02:33.470Z,83.86
2019-04-10T03:03:39.051Z,84.18
2019-04-10T03:04:44.629Z,84.04
2019-04-10T03:05:50.821Z,84.06
2019-04-10T03:06:55.706Z,84.09
2019-04-10T03:08:01.237Z,84.15
2019-04-10T03:09:18.937Z,84.21
2019-04-10T03:10:24.149Z,84.23
2019-04-10T03:11:20.204Z,84.12
2019-04-10T03:12:28.248Z,84.31
2019-04-10T03:13:33.724Z,84.97
2019-04-10T03:14:39.253Z,85.32
2019-04-10T03:15:45.074Z,85.50
2019-04-10T03:16:51.465Z,85.36
2019-04-10T03:17:56.607Z,85.63
2019-04-10T03:19:01.537Z,86.26
2019-04-10T03:20:07.823Z,86.41
2019-04-10T03:21:13.639Z,86.33
2019-04-10T03:22:18.784Z,86.31
2019-04-10T03:23:23.398Z,86.53
2019-04-10T03:24:27.858Z,86.59
2019-04-10T03:25:33.016Z,86.59
2019-04-10T03:26:37.559Z,86.63
2019-04-10T03:27:42.730Z,86.52
2019-04-10T03:28:47.302Z,86.08
2019-04-10T03:29:51.990Z,85.97
2019-04-10T03:30:59.981Z,86.04
2019-04-10T03:32:06.623Z,85.86
2019-04-10T03:33:31.187Z,85.72
2019-04-10T03:34:40.018Z,85.74
2019-04-10T03:35:45.668Z,85.57
2019-04-10T03:36:50.474Z,85.59
2019-04-10T03:37:54.938Z,85.39
2019-04-10T03:39:03.231Z,85.43
2019-04-10T03:40:07.327Z,85.51
2019-04-10T03:41:12.267Z,85.41
2019-04-10T03:42:16.959Z,85.16
2019-04-10T03:43:21.616Z,85.26
2019-04-10T03:44:27.086Z,85.82
2019-04-10T03:45:32.749Z,86.42
2019-04-10T03:46:39.957Z,86.10
2019-04-10T03:47:44.292Z,85.87
2019-04-10T03:48:49.443Z,85.62
2019-04-10T03:49:55.107Z,85.62
2019-04-10T03:51:00.453Z,85.54
2019-04-10T03:52:05.204Z,85.79
2019-04-10T03:53:10.763Z,86.10
2019-04-10T03:54:15.285Z,86.06
2019-04-10T03:55:20.898Z,86.19
2019-04-10T03:56:26.208Z,86.18
2019-04-10T03:57:30.959Z,86.05
2019-04-10T03:58:35.676Z,86.05
2019-04-10T03:59:41.423Z,86.05
2019-04-10T04:00:46.884Z,86.22
2019-04-10T04:01:51.431Z,86.46
2019-04-10T04:02:56.056Z,86.02
2019-04-10T04:04:01.483Z,86.25
2019-04-10T04:05:06.927Z,86.46
2019-04-10T04:06:11.467Z,86.92
2019-04-10T04:07:16.273Z,87.31
2019-04-10T04:08:21.559Z,87.46
2019-04-10T04:09:27.253Z,87.38
2019-04-10T04:10:32.836Z,87.22
2019-04-10T04:11:37.843Z,86.99
2019-04-10T04:12:42.760Z,86.80
2019-04-10T04:13:47.988Z,86.81
2019-04-10T04:14:53.473Z,86.72
2019-04-10T04:15:58.306Z,86.56
2019-04-10T04:17:03.960Z,86.69
2019-04-10T04:18:08.877Z,86.66
2019-04-10T04:19:13.620Z,86.76
2019-04-10T04:20:19.027Z,86.54
2019-04-10T04:21:23.794Z,86.43
2019-04-10T04:22:28.561Z,86.37
2019-04-10T04:23:34.012Z,86.67
2019-04-10T04:24:38.663Z,86.82
2019-04-10T04:25:43.560Z,86.90
2019-04-10T04:26:48.673Z,86.84
2019-04-10T04:27:53.879Z,86.76
2019-04-10T04:28:59.941Z,87.45
2019-04-10T04:30:08.750Z,87.60
2019-04-10T04:31:13.214Z,87.49
2019-04-10T04:32:17.735Z,87.54
2019-04-10T04:33:23.313Z,87.30
2019-04-10T04:34:27.835Z,87.27
2019-04-10T04:35:32.587Z,87.17
2019-04-10T04:36:37.367Z,87.34
2019-04-10T04:37:42.250Z,86.99
2019-04-10T04:38:47.803Z,87.20
2019-04-10T04:39:52.513Z,87.18
2019-04-10T04:40:58.229Z,86.86
2019-04-10T04:42:03.105Z,86.80
2019-04-10T04:43:07.895Z,86.92
2019-04-10T04:44:12.476Z,86.92
2019-04-10T04:45:17.349Z,86.70
2019-04-10T04:46:21.866Z,86.62
2019-04-10T04:47:26.562Z,86.08
2019-04-10T04:48:31.875Z,85.76
2019-04-10T04:49:36.309Z,85.45
2019-04-10T04:50:41.630Z,85.15
2019-04-10T04:51:46.130Z,85.39
2019-04-10T04:52:50.595Z,85.59
2019-04-10T04:53:55.057Z,85.60
2019-04-10T04:54:59.805Z,85.73
2019-04-10T04:56:04.292Z,86.07
2019-04-10T04:57:08.750Z,86.38
2019-04-10T04:58:13.809Z,86.34
2019-04-10T04:59:20.541Z,86.05
2019-04-10T05:00:25.756Z,86.14
2019-04-10T05:01:31.718Z,86.65
2019-04-10T05:02:37.176Z,86.72
2019-04-10T05:03:42.090Z,86.67
2019-04-10T05:04:46.690Z,86.69
2019-04-10T05:05:51.924Z,86.79
2019-04-10T05:06:56.428Z,86.89
2019-04-10T05:08:04.091Z,86.64
2019-04-10T05:09:07.910Z,86.67
2019-04-10T05:10:13.228Z,86.46
2019-04-10T05:11:18.315Z,86.82
2019-04-10T05:12:23.498Z,86.90
2019-04-10T05:13:28.409Z,87.04
2019-04-10T05:14:33.315Z,87.16
2019-04-10T05:15:37.789Z,87.19
2019-04-10T05:16:42.268Z,86.85
2019-04-10T05:17:47.100Z,87.01
2019-04-10T05:18:52.018Z,86.90
2019-04-10T05:19:56.788Z,86.59
2019-04-10T05:21:01.247Z,86.62
2019-04-10T05:22:06.027Z,86.75
2019-04-10T05:23:10.854Z,87.05
2019-04-10T05:24:15.809Z,86.94
2019-04-10T05:25:21.065Z,86.62
2019-04-10T05:26:25.746Z,86.56
2019-04-10T05:27:30.946Z,86.50
2019-04-10T05:28:36.239Z,86.36
2019-04-10T05:29:42.984Z,86.50
2019-04-10T05:30:47.907Z,86.24
2019-04-10T05:31:53.120Z,86.12
2019-04-10T05:32:57.767Z,85.88
2019-04-10T05:34:03.046Z,86.16
2019-04-10T05:35:10.072Z,85.79
2019-04-10T05:36:15.345Z,85.63
2019-04-10T05:37:21.204Z,85.54
2019-04-10T05:38:26.987Z,85.55
2019-04-10T05:39:40.612Z,85.33
2019-04-10T05:40:38.407Z,85.90
2019-04-10T05:41:43.839Z,85.54
2019-04-10T05:42:49.136Z,85.28
2019-04-10T05:43:53.559Z,84.84
2019-04-10T05:44:58.686Z,84.86
2019-04-10T05:46:03.157Z,84.67
2019-04-10T05:47:07.615Z,84.04
2019-04-10T05:48:12.094Z,83.87
2019-04-10T05:49:17.097Z,84.05
2019-04-10T05:50:21.622Z,83.29
2019-04-10T05:51:26.060Z,83.39
2019-04-10T05:52:30.927Z,84.21
2019-04-10T05:53:36.478Z,84.75
2019-04-10T05:54:41.654Z,83.78
2019-04-10T05:55:47.224Z,82.49
2019-04-10T05:56:52.562Z,82.40
2019-04-10T05:57:58.025Z,82.69
2019-04-10T05:59:03.056Z,82.39
2019-04-10T06:00:09.019Z,82.28
2019-04-10T06:01:13.589Z,82.74
2019-04-10T06:02:18.124Z,82.60
2019-04-10T06:03:22.754Z,82.19
2019-04-10T06:04:27.518Z,82.45
2019-04-10T06:05:32.143Z,82.26
2019-04-10T06:06:36.728Z,82.23
2019-04-10T06:07:41.379Z,82.84
2019-04-10T06:08:46.972Z,82.23
2019-04-10T06:09:55.939Z,82.20
2019-04-10T06:10:58.221Z,82.20
2019-04-10T06:12:04.124Z,81.56
2019-04-10T06:13:08.957Z,81.29
2019-04-10T06:14:13.592Z,81.56
2019-04-10T06:15:19.103Z,80.81
2019-04-10T06:16:24.015Z,81.62
2019-04-10T06:17:28.505Z,81.35
2019-04-10T06:18:33.344Z,81.42
2019-04-10T06:19:37.828Z,81.36
2019-04-10T06:20:45.424Z,80.81
2019-04-10T06:21:50.390Z,80.56
2019-04-10T06:22:57.649Z,80.65
2019-04-10T06:24:03.618Z,79.88
2019-04-10T06:25:11.118Z,80.08
2019-04-10T06:26:16.490Z,80.11
2019-04-10T06:27:20.921Z,79.86
2019-04-10T06:28:26.208Z,79.86
2019-04-10T06:29:31.819Z,79.05
2019-04-10T06:30:36.380Z,78.69
2019-04-10T06:31:41.079Z,78.55
2019-04-10T06:32:45.577Z,78.04
2019-04-10T06:33:51.329Z,77.58
2019-04-10T06:34:56.068Z,78.42
2019-04-10T06:36:00.890Z,78.24
2019-04-10T06:37:06.379Z,78.54
2019-04-10T06:38:10.862Z,78.80
2019-04-10T06:39:16.361Z,78.45
2019-04-10T06:40:24.228Z,77.62
2019-04-10T06:41:27.443Z,76.99
2019-04-10T06:42:44.385Z,77.43
2019-04-10T06:43:39.046Z,77.80
2019-04-10T06:44:44.553Z,78.32
2019-04-10T06:45:49.022Z,77.78
2019-04-10T06:46:53.561Z,77.57
2019-04-10T06:47:58.478Z,77.55
2019-04-10T06:49:05.597Z,77.69
2019-04-10T06:50:12.811Z,77.08
2019-04-10T06:51:19.594Z,77.43
2019-04-10T06:52:24.094Z,77.32
2019-04-10T06:53:29.461Z,75.50
2019-04-10T06:54:34.231Z,74.78
2019-04-10T06:55:38.979Z,75.27
2019-04-10T06:56:43.444Z,74.63
2019-04-10T06:57:54.419Z,75.30
2019-04-10T06:58:58.255Z,74.46
2019-04-10T07:00:04.245Z,74.97
2019-04-10T07:01:10.478Z,75.09
2019-04-10T07:02:23.715Z,75.25
2019-04-10T07:03:21.179Z,75.03
2019-04-10T07:04:26.605Z,74.49
2019-04-10T07:05:37.979Z,75.24
2019-04-10T07:06:50.004Z,74.20
2019-04-10T07:07:51.416Z,74.24
2019-04-10T07:08:51.438Z,74.43
2019-04-10T07:09:57.132Z,74.64
2019-04-10T07:11:08.715Z,73.71
2019-04-10T07:12:10.128Z,73.18
2019-04-10T07:13:15.535Z,73.88
2019-04-10T07:14:20.556Z,73.66
2019-04-10T07:15:25.677Z,74.07
2019-04-10T07:16:32.618Z,73.64
2019-04-10T07:17:40.339Z,73.74
2019-04-10T07:18:49.013Z,72.00
2019-04-10T07:19:53.447Z,72.64
2019-04-10T07:21:00.798Z,71.23
2019-04-10T07:22:08.852Z,71.58
2019-04-10T07:23:14.131Z,71.47
2019-04-10T07:24:18.830Z,71.70
2019-04-10T07:25:23.792Z,71.00
2019-04-10T07:26:37.967Z,70.31
2019-04-10T07:27:36.952Z,71.60
2019-04-10T07:28:45.660Z,71.69
2019-04-10T07:29:51.246Z,68.42
2019-04-10T07:31:00.336Z,68.62
2019-04-10T07:32:04.810Z,70.20
2019-04-10T07:33:08.354Z,68.79
2019-04-10T07:34:13.046Z,69.58
2019-04-10T07:35:21.442Z,68.56
2019-04-10T07:36:24.522Z,65.99
2019-04-10T07:37:29.335Z,66.77
2019-04-10T07:38:34.982Z,67.01
2019-04-10T07:39:39.609Z,66.65
2019-04-10T07:40:45.233Z,66.32
2019-04-10T07:41:49.983Z,66.85
2019-04-10T07:42:54.612Z,67.20
2019-04-10T07:43:59.089Z,65.83
2019-04-10T07:45:04.687Z,67.54
2019-04-10T07:46:09.164Z,67.34
2019-04-10T07:47:13.625Z,68.09
2019-04-10T07:48:18.474Z,66.25
2019-04-10T07:49:27.431Z,66.81
2019-04-10T07:50:30.270Z,65.01
2019-04-10T07:51:34.713Z,64.64
2019-04-10T07:52:39.266Z,62.81
2019-04-10T07:53:44.871Z,61.32
2019-04-10T07:54:50.327Z,61.90
2019-04-10T07:56:02.338Z,61.16
2019-04-10T07:57:02.063Z,59.65
2019-04-10T07:58:06.918Z,61.48
2019-04-10T07:59:11.420Z,60.14
2019-04-10T08:00:16.421Z,61.12
2019-04-10T08:01:22.097Z,60.06
2019-04-10T08:02:27.594Z,59.32
2019-04-10T08:03:33.097Z,60.14
2019-04-10T08:04:37.974Z,61.66
2019-04-10T08:05:43.925Z,60.33
2019-04-10T08:06:50.148Z,59.50
2019-04-10T08:08:15.460Z,60.82
2019-04-10T08:09:20.991Z,59.27
2019-04-10T08:10:26.419Z,58.87
2019-04-10T08:11:31.647Z,58.40
2019-04-10T08:12:44.916Z,58.63
2019-04-10T08:13:42.747Z,56.85
2019-04-10T08:14:47.144Z,57.11
2019-04-10T08:15:52.238Z,56.77
2019-04-10T08:16:57.392Z,55.31
2019-04-10T08:18:02.601Z,56.30
2019-04-10T08:19:08.180Z,57.80
2019-04-10T08:20:13.325Z,57.54
2019-04-10T08:21:18.232Z,55.08
2019-04-10T08:22:22.684Z,55.15
2019-04-10T08:23:28.134Z,55.67
2019-04-10T08:24:32.968Z,55.68
2019-04-10T08:25:38.719Z,55.23
2019-04-10T08:26:43.265Z,55.10
2019-04-10T08:27:47.797Z,54.52
2019-04-10T08:28:53.731Z,54.62
2019-04-10T08:29:59.080Z,54.11
2019-04-10T08:31:04.387Z,53.08
2019-04-10T08:32:09.890Z,53.99
2019-04-10T08:33:14.326Z,53.33
2019-04-10T08:34:21.617Z,54.15
2019-04-10T08:35:27.314Z,54.95
2019-04-10T08:36:31.961Z,54.44
2019-04-10T08:37:36.875Z,55.58
2019-04-10T08:38:42.813Z,53.93
2019-04-10T08:39:49.163Z,54.85
2019-04-10T08:40:54.401Z,53.94
2019-04-10T08:42:00.072Z,54.83
2019-04-10T08:43:04.485Z,55.36
2019-04-10T08:44:08.945Z,55.78
2019-04-10T08:45:13.462Z,54.24
2019-04-10T08:46:18.013Z,54.90
2019-04-10T08:47:22.755Z,54.39
2019-04-10T08:48:29.985Z,54.44
2019-04-10T08:49:33.374Z,54.38
2019-04-10T08:50:38.550Z,55.93
2019-04-10T08:51:43.658Z,55.48
2019-04-10T08:52:48.709Z,55.44
2019-04-10T08:53:58.450Z,55.07
2019-04-10T08:55:06.262Z,52.79
2019-04-10T08:56:10.974Z,54.94
2019-04-10T08:57:30.518Z,53.97
2019-04-10T08:58:39.577Z,53.84
2019-04-10T08:59:46.814Z,55.10
2019-04-10T09:00:52.617Z,53.69
2019-04-10T09:01:57.757Z,52.92
2019-04-10T09:03:02.509Z,53.93
2019-04-10T09:04:07.788Z,54.37
2019-04-10T09:05:13.280Z,52.03
2019-04-10T09:06:18.121Z,52.48
2019-04-10T09:07:22.597Z,51.87
2019-04-10T09:08:27.046Z,53.45
2019-04-10T09:09:31.908Z,52.25
2019-04-10T09:10:36.615Z,52.33
2019-04-10T09:11:41.095Z,52.49
2019-04-10T09:12:45.556Z,52.68
2019-04-10T09:13:50.015Z,51.42
2019-04-10T09:14:54.469Z,52.44
2019-04-10T09:15:58.932Z,51.40
2019-04-10T09:17:03.413Z,51.90
2019-04-10T09:18:08.545Z,52.28
2019-04-10T09:19:14.027Z,51.61
2019-04-10T09:20:18.495Z,50.97
2019-04-10T09:21:23.698Z,52.61
2019-04-10T09:22:30.104Z,52.96
2019-04-10T09:23:42.572Z,52.29
2019-04-10T09:24:40.613Z,51.84
2019-04-10T09:25:45.063Z,51.54
2019-04-10T09:26:50.832Z,49.41
2019-04-10T09:27:55.435Z,49.92
2019-04-10T09:29:00.184Z,48.80
2019-04-10T09:30:08.728Z,49.01
2019-04-10T09:31:13.597Z,51.35
2019-04-10T09:32:18.179Z,49.03
2019-04-10T09:33:27.483Z,49.95
2019-04-10T09:34:29.070Z,48.56
2019-04-10T09:35:33.595Z,48.69
2019-04-10T09:36:38.082Z,50.18
2019-04-10T09:37:43.054Z,51.58
2019-04-10T09:38:47.546Z,52.66
2019-04-10T09:39:53.535Z,49.46
2019-04-10T09:40:58.807Z,48.72
2019-04-10T09:42:03.480Z,49.84
2019-04-10T09:43:09.228Z,47.58
2019-04-10T09:44:14.456Z,48.86
2019-04-10T09:45:19.952Z,49.19
2019-04-10T09:46:24.788Z,49.18
2019-04-10T09:47:30.346Z,48.63
2019-04-10T09:48:35.860Z,50.44
2019-04-10T09:49:45.820Z,50.55
2019-04-10T09:50:48.061Z,48.64
2019-04-10T09:51:53.029Z,50.52
2019-04-10T09:52:57.488Z,51.14
2019-04-10T09:54:01.953Z,48.97
2019-04-10T09:55:07.706Z,48.36
2019-04-10T09:56:12.178Z,50.91
2019-04-10T09:57:17.842Z,49.79
2019-04-10T09:58:22.678Z,50.12
2019-04-10T09:59:35.850Z,50.66
2019-04-10T10:00:34.064Z,51.72
2019-04-10T10:01:38.512Z,50.62
2019-04-10T10:02:43.156Z,52.08
2019-04-10T10:03:48.690Z,52.28
2019-04-10T10:04:53.630Z,50.77
2019-04-10T10:06:00.090Z,51.28
2019-04-10T10:07:04.617Z,51.63
2019-04-10T10:08:09.191Z,52.75
2019-04-10T10:09:14.817Z,52.26
2019-04-10T10:10:20.546Z,50.14
2019-04-10T10:11:27.119Z,49.99
2019-04-10T10:12:32.219Z,50.27
2019-04-10T10:13:37.383Z,51.06
2019-04-10T10:14:42.249Z,50.37
2019-04-10T10:15:46.890Z,50.57
2019-04-10T10:16:52.513Z,51.35
2019-04-10T10:17:57.175Z,51.55
2019-04-10T10:19:01.761Z,50.30
2019-04-10T10:20:08.630Z,49.98
2019-04-10T10:21:13.082Z,49.08
2019-04-10T10:22:17.542Z,49.98
2019-04-10T10:23:22.069Z,48.69
2019-04-10T10:24:28.767Z,48.22
2019-04-10T10:25:33.369Z,48.37
2019-04-10T10:26:37.822Z,47.89
2019-04-10T10:27:42.697Z,49.90
2019-04-10T10:28:47.526Z,50.30
2019-04-10T10:29:53.539Z,49.22
2019-04-10T10:30:58.211Z,50.97
2019-04-10T10:32:02.660Z,49.33
2019-04-10T10:33:07.809Z,49.89
2019-04-10T10:34:12.722Z,50.12
2019-04-10T10:35:18.815Z,49.53
2019-04-10T10:36:34.618Z,48.48
2019-04-10T10:37:30.493Z,47.36
2019-04-10T10:38:35.026Z,47.17
2019-04-10T10:39:39.483Z,45.92
2019-04-10T10:40:44.868Z,46.64
2019-04-10T10:41:49.389Z,46.86
2019-04-10T10:42:54.769Z,46.59
2019-04-10T10:44:00.672Z,45.82
2019-04-10T10:45:07.775Z,45.65
2019-04-10T10:46:13.379Z,45.36
2019-04-10T10:47:17.959Z,45.91
2019-04-10T10:48:22.378Z,45.04
2019-04-10T10:49:28.593Z,45.69
2019-04-10T10:50:33.216Z,46.02
2019-04-10T10:51:37.632Z,45.76
2019-04-10T10:52:42.093Z,44.47
2019-04-10T10:53:46.580Z,43.40
2019-04-10T10:54:51.437Z,46.13
2019-04-10T10:55:56.097Z,45.19
2019-04-10T10:57:00.610Z,45.19
2019-04-10T10:58:06.021Z,43.03
2019-04-10T10:59:11.325Z,45.85
2019-04-10T11:00:17.126Z,44.52
2019-04-10T11:01:22.116Z,43.82
2019-04-10T11:02:27.703Z,44.84
2019-04-10T11:03:32.259Z,43.08
2019-04-10T11:04:37.749Z,44.56
2019-04-10T11:05:42.431Z,44.43
2019-04-10T11:06:53.987Z,42.59
2019-04-10T11:07:53.168Z,43.99
2019-04-10T11:08:57.827Z,43.83
2019-04-10T11:10:02.835Z,44.61
2019-04-10T11:11:08.692Z,44.85
2019-04-10T11:12:13.607Z,42.81
2019-04-10T11:13:18.904Z,42.83
2019-04-10T11:14:23.868Z,43.44
2019-04-10T11:15:28.392Z,42.67
2019-04-10T11:16:33.914Z,42.33
2019-04-10T11:17:40.448Z,39.51
2019-04-10T11:18:45.064Z,39.74
2019-04-10T11:19:51.289Z,40.34
2019-04-10T11:21:00.955Z,41.11
2019-04-10T11:22:02.725Z,43.23
2019-04-10T11:23:07.334Z,43.14
2019-04-10T11:24:13.401Z,43.09
2019-04-10T11:25:18.160Z,43.18
2019-04-10T11:26:24.160Z,46.65
2019-04-10T11:27:29.406Z,46.65
2019-04-10T11:28:34.972Z,42.95
2019-04-10T11:29:40.796Z,44.43
2019-04-10T11:30:47.280Z,44.43
2019-04-10T11:31:53.625Z,45.22
2019-04-10T11:32:58.343Z,45.34
2019-04-10T11:34:04.111Z,45.62
2019-04-10T11:35:08.982Z,45.29
2019-04-10T11:36:15.138Z,44.29
2019-04-10T11:37:32.110Z,43.66
2019-04-10T11:38:27.230Z,43.58
2019-04-10T11:39:35.129Z,44.00
2019-04-10T11:40:38.881Z,43.88
2019-04-10T11:41:43.433Z,43.65
2019-04-10T11:42:47.863Z,44.54
2019-04-10T11:43:53.353Z,44.31
2019-04-10T11:44:59.336Z,44.31
2019-04-10T11:46:05.657Z,44.21
2019-04-10T11:47:10.597Z,43.40
2019-04-10T11:48:18.307Z,42.99
2019-04-10T11:49:23.085Z,42.78
2019-04-10T11:50:29.794Z,42.78
2019-04-10T11:51:36.749Z,39.38
2019-04-10T11:52:48.013Z,40.22
2019-04-10T11:53:50.833Z,39.71
2019-04-10T11:55:00.495Z,39.50
2019-04-10T11:56:00.135Z,39.90
2019-04-10T11:57:06.842Z,41.47
2019-04-10T11:58:14.541Z,40.34
2019-04-10T11:59:21.609Z,41.16
2019-04-10T12:00:50.400Z,41.68
2019-04-10T12:02:00.966Z,40.74
2019-04-10T12:03:08.327Z,40.46
2019-04-10T12:04:11.365Z,42.27
2019-04-10T12:05:20.242Z,42.27
2019-04-10T12:06:29.318Z,40.14
2019-04-10T12:09:03.766Z,41.09
2019-04-10T12:11:08.832Z,41.37
2019-04-10T12:11:57.334Z,39.31
2019-04-10T12:13:01.958Z,39.13
2019-04-10T12:14:07.577Z,38.42
2019-04-10T12:15:12.343Z,37.21
2019-04-10T12:16:16.872Z,33.76
2019-04-10T12:17:22.158Z,34.71
2019-04-10T12:18:26.797Z,35.32
2019-04-10T12:19:31.295Z,35.47
2019-04-10T12:20:35.823Z,35.80
2019-04-10T12:21:40.661Z,36.27
2019-04-10T12:22:46.153Z,38.58
2019-04-10T12:23:51.499Z,40.16
2019-04-10T12:24:56.434Z,37.84
2019-04-10T12:26:01.264Z,38.37
2019-04-10T12:27:06.497Z,39.62
2019-04-10T12:28:11.705Z,37.68
2019-04-10T12:29:18.268Z,39.07
2019-04-10T12:30:23.528Z,39.27
2019-04-10T12:31:28.313Z,39.00
2019-04-10T12:32:32.766Z,37.73
2019-04-10T12:33:38.013Z,39.34
2019-04-10T12:34:42.519Z,38.10
2019-04-10T12:35:47.759Z,38.63
2019-04-10T12:36:53.376Z,39.09
2019-04-10T12:38:02.845Z,39.99
2019-04-10T12:39:05.822Z,39.72
2019-04-10T12:40:11.865Z,41.91
2019-04-10T12:41:17.304Z,41.17
2019-04-10T12:42:23.875Z,40.38
2019-04-10T12:43:29.260Z,40.33
2019-04-10T12:44:33.855Z,41.15
2019-04-10T12:45:38.378Z,41.37
2019-04-10T12:46:43.559Z,39.44
2019-04-10T12:47:48.130Z,40.55
2019-04-10T12:48:52.768Z,39.66
2019-04-10T12:49:58.245Z,37.81
2019-04-10T12:51:03.475Z,39.98
2019-04-10T12:52:08.096Z,39.94
2019-04-10T12:53:13.580Z,40.71
2019-04-10T12:54:18.064Z,42.07
2019-04-10T12:55:22.543Z,41.88
2019-04-10T12:56:27.001Z,41.97
2019-04-10T12:57:31.798Z,41.97
2019-04-10T12:58:37.105Z,42.29
2019-04-10T12:59:41.758Z,42.29
2019-04-10T13:00:47.932Z,40.01
2019-04-10T13:01:53.900Z,40.56
2019-04-10T13:02:58.708Z,41.30
2019-04-10T13:04:03.438Z,43.45
2019-04-10T13:05:09.085Z,43.19
2019-04-10T13:06:13.882Z,42.36
2019-04-10T13:07:19.178Z,43.03
2019-04-10T13:08:31.162Z,43.05
2019-04-10T13:09:29.874Z,44.22
2019-04-10T13:10:34.332Z,43.16
2019-04-10T13:11:40.619Z,43.20
2019-04-10T13:12:45.280Z,42.36
2019-04-10T13:13:51.142Z,42.36
2019-04-10T13:14:57.009Z,43.33
2019-04-10T13:16:01.598Z,44.31
2019-04-10T13:17:06.764Z,44.70
2019-04-10T13:18:12.104Z,43.27
2019-04-10T13:19:16.663Z,43.74
2019-04-10T13:20:21.901Z,43.68
2019-04-10T13:21:26.487Z,43.01
2019-04-10T13:22:31.800Z,42.35
2019-04-10T13:23:37.008Z,44.14
2019-04-10T13:24:43.779Z,43.68
2019-04-10T13:25:55.452Z,41.74
2019-04-10T13:26:55.220Z,41.90
2019-04-10T13:28:01.628Z,41.34
2019-04-10T13:29:10.457Z,42.95
2019-04-10T13:30:14.982Z,43.12
2019-04-10T13:31:19.846Z,43.34
2019-04-10T13:32:24.303Z,43.21
2019-04-10T13:33:28.914Z,43.30
2019-04-10T13:34:33.881Z,42.38
2019-04-10T13:35:38.715Z,42.68
2019-04-10T13:36:43.918Z,43.42
2019-04-10T13:37:48.542Z,42.38
2019-04-10T13:38:54.794Z,40.33
2019-04-10T13:39:59.388Z,40.33
2019-04-10T13:41:04.112Z,38.36
2019-04-10T13:42:09.922Z,38.36
2019-04-10T13:43:14.391Z,38.66
2019-04-10T13:44:18.861Z,39.82
2019-04-10T13:45:23.619Z,38.31
2019-04-10T13:46:28.960Z,37.04
2019-04-10T13:47:34.393Z,36.30
2019-04-10T13:48:39.712Z,34.73
2019-04-10T13:49:44.276Z,35.01
2019-04-10T13:50:48.786Z,34.91
2019-04-10T13:51:53.971Z,35.16
2019-04-10T13:53:01.722Z,36.80
2019-04-10T13:54:10.381Z,36.02
2019-04-10T13:55:18.956Z,37.24
2019-04-10T13:56:25.268Z,38.03
2019-04-10T13:57:30.641Z,38.39
2019-04-10T13:58:35.197Z,38.72
2019-04-10T13:59:39.679Z,39.23
2019-04-10T14:00:45.120Z,39.69
2019-04-10T14:01:50.213Z,39.76
2019-04-10T14:02:56.263Z,40.27
2019-04-10T14:04:02.929Z,41.38
2019-04-10T14:05:11.514Z,41.61